sensor_id;sensor_type;location;lat;lon;timestamp;P1;durP1;ratioP1;P2;durP2;ratioP2
51515;SDS011;37603;55.614;37.326;2022-09-27T00:00:08;12.3;;;9.2;;
51515;SDS011;37603;55.614;37.326;2022-09-27T00:06:07;14.6;;;11.2;;
51515;SDS011;37603;55.614;37.326;2022-09-27T00:12:05;14.4;;;10.3;;
51515;SDS011;37603;55.614;37.326;2022-09-27T00:18:04;16.6;;;11.8;;
51515;SDS011;37603;55.614;37.326;2022-09-27T00:24:03;12.4;;;9.0;;
51515;SDS011;37603;55.614;37.326;2022-09-27T00:30:01;12.8;;;8.7;;
51515;SDS011;37603;55.614;37.326;2022-09-27T00:36:02;11.8;;;8.4;;
51515;SDS011;37603;55.614;37.326;2022-09-27T00:41:59;10.7;;;7.8;;
51515;SDS011;37603;55.614;37.326;2022-09-27T00:47:58;10.3;;;9.2;;
51515;SDS011;37603;55.614;37.326;2022-09-27T00:53:56;11.0;;;8.7;;
51515;SDS011;37603;55.614;37.326;2022-09-27T00:59:56;12.6;;;10.4;;
51515;SDS011;37603;55.614;37.326;2022-09-27T01:05:53;12.4;;;10.2;;
51515;SDS011;37603;55.614;37.326;2022-09-27T01:11:53;11.8;;;9.1;;
51515;SDS011;37603;55.614;37.326;2022-09-27T01:17:55;9.7;;;8.0;;
51515;SDS011;37603;55.614;37.326;2022-09-27T01:23:53;10.5;;;8.4;;
51515;SDS011;37603;55.614;37.326;2022-09-27T01:29:52;9.4;;;7.5;;
51515;SDS011;37603;55.614;37.326;2022-09-27T01:35:51;9.7;;;7.5;;
51515;SDS011;37603;55.614;37.326;2022-09-27T01:41:46;9.5;;;7.9;;
51515;SDS011;37603;55.614;37.326;2022-09-27T01:47:46;9.8;;;8.2;;
51515;SDS011;37603;55.614;37.326;2022-09-27T01:53:43;10.5;;;8.1;;
51515;SDS011;37603;55.614;37.326;2022-09-27T01:59:43;12.7;;;9.4;;
51515;SDS011;37603;55.614;37.326;2022-09-27T02:05:41;15.3;;;11.7;;
51515;SDS011;37603;55.614;37.326;2022-09-27T02:11:40;18.2;;;11.6;;
51515;SDS011;37603;55.614;37.326;2022-09-27T02:17:39;41.5;;;15.4;;
51515;SDS011;37603;55.614;37.326;2022-09-27T02:23:38;31.2;;;14.7;;
51515;SDS011;37603;55.614;37.326;2022-09-27T02:29:36;31.0;;;13.1;;
51515;SDS011;37603;55.614;37.326;2022-09-27T02:35:34;42.3;;;14.1;;
51515;SDS011;37603;55.614;37.326;2022-09-27T02:41:33;54.9;;;13.7;;
51515;SDS011;37603;55.614;37.326;2022-09-27T02:47:36;29.0;;;12.6;;
51515;SDS011;37603;55.614;37.326;2022-09-27T02:53:34;23.3;;;12.6;;
51515;SDS011;37603;55.614;37.326;2022-09-27T02:59:32;18.4;;;10.1;;
51515;SDS011;37603;55.614;37.326;2022-09-27T03:05:28;21.9;;;12.1;;
51515;SDS011;37603;55.614;37.326;2022-09-27T03:11:27;48.9;;;14.3;;
51515;SDS011;37603;55.614;37.326;2022-09-27T03:17:25;103.7;;;15.0;;
51515;SDS011;37603;55.614;37.326;2022-09-27T03:23:24;13.4;;;9.1;;
51515;SDS011;37603;55.614;37.326;2022-09-27T03:29:23;79.8;;;17.0;;
51515;SDS011;37603;55.614;37.326;2022-09-27T03:35:22;13.9;;;7.7;;
51515;SDS011;37603;55.614;37.326;2022-09-27T03:41:20;24.7;;;8.3;;
51515;SDS011;37603;55.614;37.326;2022-09-27T03:47:19;128.5;;;18.6;;
51515;SDS011;37603;55.614;37.326;2022-09-27T03:53:18;37.6;;;16.9;;
51515;SDS011;37603;55.614;37.326;2022-09-27T03:59:17;30.8;;;15.4;;
51515;SDS011;37603;55.614;37.326;2022-09-27T04:05:15;38.0;;;16.9;;
51515;SDS011;37603;55.614;37.326;2022-09-27T04:11:14;39.9;;;12.5;;
51515;SDS011;37603;55.614;37.326;2022-09-27T04:17:13;20.4;;;13.4;;
51515;SDS011;37603;55.614;37.326;2022-09-27T04:23:12;18.2;;;10.7;;
51515;SDS011;37603;55.614;37.326;2022-09-27T04:29:10;17.7;;;11.4;;
51515;SDS011;37603;55.614;37.326;2022-09-27T04:35:09;23.7;;;12.7;;
51515;SDS011;37603;55.614;37.326;2022-09-27T04:41:08;14.3;;;10.9;;
51515;SDS011;37603;55.614;37.326;2022-09-27T04:47:07;18.7;;;12.0;;
51515;SDS011;37603;55.614;37.326;2022-09-27T04:53:06;12.7;;;9.7;;
51515;SDS011;37603;55.614;37.326;2022-09-27T04:59:04;36.8;;;12.5;;
51515;SDS011;37603;55.614;37.326;2022-09-27T05:05:03;41.3;;;10.3;;
51515;SDS011;37603;55.614;37.326;2022-09-27T05:11:02;35.1;;;10.7;;
51515;SDS011;37603;55.614;37.326;2022-09-27T05:17:01;76.1;;;14.6;;
51515;SDS011;37603;55.614;37.326;2022-09-27T05:23:00;11.0;;;8.2;;
51515;SDS011;37603;55.614;37.326;2022-09-27T05:28:58;16.1;;;10.1;;
51515;SDS011;37603;55.614;37.326;2022-09-27T05:34:57;17.5;;;10.6;;
51515;SDS011;37603;55.614;37.326;2022-09-27T05:40:56;14.5;;;9.8;;
51515;SDS011;37603;55.614;37.326;2022-09-27T05:46:55;11.5;;;9.9;;
51515;SDS011;37603;55.614;37.326;2022-09-27T05:52:54;14.5;;;9.1;;
51515;SDS011;37603;55.614;37.326;2022-09-27T05:58:52;18.0;;;12.2;;
51515;SDS011;37603;55.614;37.326;2022-09-27T06:04:51;13.7;;;10.4;;
51515;SDS011;37603;55.614;37.326;2022-09-27T06:10:58;15.5;;;12.3;;
51515;SDS011;37603;55.614;37.326;2022-09-27T06:16:49;11.5;;;10.2;;
51515;SDS011;37603;55.614;37.326;2022-09-27T06:22:48;12.7;;;10.6;;
51515;SDS011;37603;55.614;37.326;2022-09-27T06:28:47;11.9;;;9.5;;
51515;SDS011;37603;55.614;37.326;2022-09-27T06:34:46;12.4;;;9.6;;
51515;SDS011;37603;55.614;37.326;2022-09-27T06:40:45;11.8;;;9.5;;
51515;SDS011;37603;55.614;37.326;2022-09-27T06:46:44;16.2;;;11.8;;
51515;SDS011;37603;55.614;37.326;2022-09-27T06:52:45;16.3;;;12.1;;
51515;SDS011;37603;55.614;37.326;2022-09-27T06:58:42;16.1;;;11.4;;
51515;SDS011;37603;55.614;37.326;2022-09-27T07:04:41;15.6;;;10.0;;
51515;SDS011;37603;55.614;37.326;2022-09-27T07:10:40;11.8;;;9.0;;
51515;SDS011;37603;55.614;37.326;2022-09-27T07:16:39;12.2;;;8.5;;
51515;SDS011;37603;55.614;37.326;2022-09-27T07:22:39;12.3;;;7.8;;
51515;SDS011;37603;55.614;37.326;2022-09-27T07:28:38;10.7;;;7.3;;
51515;SDS011;37603;55.614;37.326;2022-09-27T07:34:37;9.3;;;8.0;;
51515;SDS011;37603;55.614;37.326;2022-09-27T07:40:36;10.9;;;8.0;;
51515;SDS011;37603;55.614;37.326;2022-09-27T07:46:35;8.2;;;7.0;;
51515;SDS011;37603;55.614;37.326;2022-09-27T07:52:37;6.6;;;5.1;;
51515;SDS011;37603;55.614;37.326;2022-09-27T07:58:33;5.2;;;4.2;;
51515;SDS011;37603;55.614;37.326;2022-09-27T08:04:33;6.3;;;3.8;;
51515;SDS011;37603;55.614;37.326;2022-09-27T08:10:32;5.1;;;4.1;;
51515;SDS011;37603;55.614;37.326;2022-09-27T08:16:31;7.2;;;4.9;;
51515;SDS011;37603;55.614;37.326;2022-09-27T08:22:30;4.2;;;3.8;;
51515;SDS011;37603;55.614;37.326;2022-09-27T08:28:30;5.0;;;3.3;;
51515;SDS011;37603;55.614;37.326;2022-09-27T08:34:29;6.0;;;3.9;;
51515;SDS011;37603;55.614;37.326;2022-09-27T08:40:30;4.8;;;3.4;;
51515;SDS011;37603;55.614;37.326;2022-09-27T08:46:30;3.9;;;3.2;;
51515;SDS011;37603;55.614;37.326;2022-09-27T08:52:28;3.7;;;2.9;;
51515;SDS011;37603;55.614;37.326;2022-09-27T08:58:27;6.9;;;3.0;;
51515;SDS011;37603;55.614;37.326;2022-09-27T09:04:26;4.6;;;2.9;;
51515;SDS011;37603;55.614;37.326;2022-09-27T09:10:30;4.1;;;2.7;;
51515;SDS011;37603;55.614;37.326;2022-09-27T09:16:27;2.5;;;2.0;;
51515;SDS011;37603;55.614;37.326;2022-09-27T09:22:28;3.6;;;1.6;;
51515;SDS011;37603;55.614;37.326;2022-09-27T09:28:27;3.0;;;1.5;;
51515;SDS011;37603;55.614;37.326;2022-09-27T09:40:22;3.6;;;2.3;;
51515;SDS011;37603;55.614;37.326;2022-09-27T09:46:21;5.0;;;2.8;;
51515;SDS011;37603;55.614;37.326;2022-09-27T09:52:20;4.5;;;2.6;;
51515;SDS011;37603;55.614;37.326;2022-09-27T09:58:20;2.8;;;1.8;;
51515;SDS011;37603;55.614;37.326;2022-09-27T10:04:19;3.2;;;1.8;;
51515;SDS011;37603;55.614;37.326;2022-09-27T10:10:18;2.1;;;1.3;;
51515;SDS011;37603;55.614;37.326;2022-09-27T10:16:17;2.7;;;1.3;;
51515;SDS011;37603;55.614;37.326;2022-09-27T10:22:17;3.9;;;1.4;;
51515;SDS011;37603;55.614;37.326;2022-09-27T10:34:16;4.4;;;2.1;;
51515;SDS011;37603;55.614;37.326;2022-09-27T10:40:18;9.2;;;6.3;;
51515;SDS011;37603;55.614;37.326;2022-09-27T10:46:15;5.2;;;3.9;;
51515;SDS011;37603;55.614;37.326;2022-09-27T10:52:13;4.5;;;2.4;;
51515;SDS011;37603;55.614;37.326;2022-09-27T10:58:15;5.6;;;3.1;;
51515;SDS011;37603;55.614;37.326;2022-09-27T11:04:16;6.1;;;3.7;;
51515;SDS011;37603;55.614;37.326;2022-09-27T11:10:20;16.3;;;11.2;;
51515;SDS011;37603;55.614;37.326;2022-09-27T11:16:15;8.8;;;5.4;;
51515;SDS011;37603;55.614;37.326;2022-09-27T11:22:13;29.7;;;18.7;;
51515;SDS011;37603;55.614;37.326;2022-09-27T11:28:11;10.9;;;8.1;;
51515;SDS011;37603;55.614;37.326;2022-09-27T11:34:11;9.8;;;6.8;;
51515;SDS011;37603;55.614;37.326;2022-09-27T11:40:12;7.6;;;4.8;;
51515;SDS011;37603;55.614;37.326;2022-09-27T11:46:07;8.3;;;5.2;;
51515;SDS011;37603;55.614;37.326;2022-09-27T11:52:08;16.4;;;11.3;;
51515;SDS011;37603;55.614;37.326;2022-09-27T11:58:03;7.0;;;5.3;;
51515;SDS011;37603;55.614;37.326;2022-09-27T12:04:08;5.3;;;3.5;;
51515;SDS011;37603;55.614;37.326;2022-09-27T12:10:03;8.8;;;6.8;;
51515;SDS011;37603;55.614;37.326;2022-09-27T12:16:00;8.3;;;4.8;;
51515;SDS011;37603;55.614;37.326;2022-09-27T12:22:00;7.7;;;5.6;;
51515;SDS011;37603;55.614;37.326;2022-09-27T12:28:00;6.1;;;4.2;;
51515;SDS011;37603;55.614;37.326;2022-09-27T12:39:58;9.8;;;5.4;;
51515;SDS011;37603;55.614;37.326;2022-09-27T12:45:58;13.6;;;10.0;;
51515;SDS011;37603;55.614;37.326;2022-09-27T12:51:56;7.0;;;5.7;;
51515;SDS011;37603;55.614;37.326;2022-09-27T12:58:02;4.6;;;3.0;;
51515;SDS011;37603;55.614;37.326;2022-09-27T13:04:01;6.1;;;3.3;;
51515;SDS011;37603;55.614;37.326;2022-09-27T13:09:56;6.9;;;6.2;;
51515;SDS011;37603;55.614;37.326;2022-09-27T13:15:54;92.9;;;71.3;;
51515;SDS011;37603;55.614;37.326;2022-09-27T13:19:52;92.9;;;71.3;;
51515;SDS011;37603;55.614;37.326;2022-09-27T13:21:53;26.6;;;20.9;;
51515;SDS011;37603;55.614;37.326;2022-09-27T13:27:51;21.6;;;15.3;;
